Data for 04/14/2006

Time Sea-Level Adjusted Pressure Absolute Pressure Temperature Relative Humidity Dew Point   
(mb) (inHg) (mb) (inHg) (C) (F) (%) (C) (F)
00:05 1014 29.94 843 24.89 7.3 45.2 61 0.4 32.7
00:10 1014 29.94 843 24.89 6.9 44.5 63 0.3 32.5
00:15 1014 29.94 843 24.89 6.7 44 64 0.3 32.5
00:20 1014 29.94 843 24.89 6.6 43.9 63 -0 32
00:25 1014 29.94 843 24.89 6.7 44.1 62 -0.1 31.8
00:30 1014 29.94 843 24.89 6.8 44.2 59 -0.6 31
00:35 1014 29.94 843 24.89 7.1 44.7 59 -0.4 31.3
00:40 1014 29.94 843 24.89 7 44.6 59 -0.5 31.1
00:45 1014 29.94 843 24.89 7.1 44.8 58 -0.5 31.1
00:50 1014 29.94 843 24.89 7 44.6 59 -0.4 31.4
00:55 1014 29.94 843 24.89 6.8 44.2 60 -0.4 31.2
01:00 1014 29.94 843 24.89 6.7 44 60 -0.5 31.2
01:05 1014 29.94 843 24.89 6.7 44 60 -0.5 31.1
01:10 1013 29.91 843 24.89 6.5 43.7 60 -0.8 30.6
01:15 1013 29.91 843 24.89 6.5 43.7 60 -0.6 30.9
01:20 1013 29.91 843 24.89 6.3 43.4 61 -0.7 30.7
01:25 1013 29.91 843 24.89 6.1 43 62 -0.5 31.1
01:30 1013 29.91 842 24.86 5.9 42.5 62 -0.9 30.4
01:35 1013 29.91 842 24.86 5.9 42.7 61 -0.9 30.4
01:40 1013 29.91 842 24.86 6.1 43 60 -1.1 30.1
01:45 1013 29.91 842 24.86 6 42.8 61 -0.8 30.5
01:50 1013 29.91 842 24.86 5.7 42.3 63 -0.8 30.6
01:55 1013 29.91 842 24.86 5.2 41.3 65 -0.8 30.5
02:00 1013 29.91 842 24.86 4.9 40.8 67 -0.7 30.7
02:05 1013 29.91 842 24.86 4.7 40.5 67 -0.9 30.4
02:10 1013 29.91 842 24.86 4.7 40.4 67 -1 30.2
02:15 1013 29.91 842 24.86 4.5 40.1 67 -1.1 30.1
02:20 1013 29.91 842 24.86 4.3 39.8 67 -1.2 29.9
02:25 1013 29.91 842 24.86 4.4 39.9 66 -1.3 29.6
02:30 1013 29.91 842 24.86 4.4 39.9 67 -1.3 29.7
02:35 1013 29.91 842 24.86 4.4 39.9 67 -1.3 29.7
02:40 1013 29.91 842 24.86 4.2 39.6 66 -1.6 29.1
02:45 1013 29.91 842 24.86 4.5 40 65 -1.5 29.3
02:50 1013 29.91 842 24.86 4.6 40.2 65 -1.5 29.2
02:55 1013 29.91 842 24.86 4.6 40.2 65 -1.4 29.4
03:00 1013 29.91 842 24.86 4.1 39.4 67 -1.4 29.4
03:05 1013 29.91 842 24.86 4 39.2 66 -1.7 28.9
03:10 1012 29.88 842 24.86 4.3 39.7 65 -1.7 28.9
03:15 1012 29.88 842 24.86 4.5 40.1 64 -1.8 28.8
03:20 1012 29.88 842 24.86 4.7 40.5 63 -1.8 28.8
03:25 1012 29.88 842 24.86 4.7 40.4 61 -2.2 28
03:30 1012 29.88 841 24.83 5.2 41.3 58 -2.5 27.4
03:35 1012 29.88 841 24.83 5.3 41.5 58 -2.3 27.8
03:40 1012 29.88 841 24.83 5.1 41.1 59 -2.4 27.7
03:45 1012 29.88 841 24.83 4.9 40.8 61 -2 28.3
03:50 1012 29.88 841 24.83 4.7 40.5 60 -2.4 27.8
03:55 1012 29.88 841 24.83 5.2 41.4 53 -3.6 25.5
04:00 1012 29.88 841 24.83 6.1 43 55 -2.2 28
04:05 1012 29.88 841 24.83 5.6 42 53 -3.2 26.3
04:10 1012 29.88 841 24.83 6.1 42.9 50 -3.6 25.5
04:15 1012 29.88 841 24.83 5.5 42 57 -2.3 27.9
04:20 1012 29.88 841 24.83 4.9 40.9 55 -3.3 26.1
04:25 1012 29.88 841 24.83 5.4 41.8 56 -2.7 27.1
04:30 1012 29.88 841 24.83 5.2 41.3 52 -3.9 25
04:35 1012 29.88 841 24.83 6.3 43.4 44 -5.1 22.8
04:40 1012 29.88 841 24.83 6.1 43 52 -3 26.5
04:45 1012 29.88 841 24.83 6 42.7 44 -5.4 22.3
04:50 1012 29.88 841 24.83 6.8 44.3 49 -3.3 26.1
04:55 1012 29.88 841 24.83 6.1 42.9 50 -3.5 25.7
05:00 1011 29.85 841 24.83 5.6 42.1 50 -4 24.8
05:05 1011 29.85 841 24.83 6 42.9 46 -4.8 23.3
05:10 1011 29.85 841 24.83 5 41 54 -3.6 25.5
05:15 1011 29.85 841 24.83 5.1 41.2 48 -5.1 22.9
05:20 1011 29.85 841 24.83 5.7 42.2 49 -4.2 24.5
05:25 1011 29.85 840 24.81 5.2 41.4 49 -4.6 23.7
05:30 1011 29.85 840 24.81 5 41 50 -4.5 23.9
05:35 1011 29.85 840 24.81 4.8 40.6 50 -4.9 23.2
05:40 1011 29.85 840 24.81 5 41 50 -4.5 23.8
05:45 1011 29.85 840 24.81 4.6 40.3 52 -4.4 24
05:50 1011 29.85 840 24.81 4 39.3 53 -4.6 23.7
05:55 1011 29.85 840 24.81 4 39.1 54 -4.5 24
06:00 1011 29.85 840 24.81 4.1 39.3 51 -5.2 22.7
06:05 1011 29.85 840 24.81 4.6 40.4 50 -5 23.1
06:10 1011 29.85 840 24.81 5.1 41.1 49 -4.8 23.3
06:15 1011 29.85 840 24.81 4.3 39.7 52 -4.7 23.6
06:20 1011 29.85 840 24.81 3.3 37.9 53 -5.4 22.3
06:25 1011 29.85 840 24.81 2.9 37.2 54 -5.5 22.2
06:30 1011 29.85 840 24.81 3.5 38.4 50 -5.9 21.3
06:35 1011 29.85 840 24.81 3 37.3 54 -5.4 22.4
06:40 1011 29.85 840 24.81 3.4 38.1 50 -5.9 21.3
06:45 1010 29.83 840 24.81 3.7 38.6 51 -5.5 22.2
06:50 1010 29.83 840 24.81 3.2 37.7 54 -5.3 22.5
06:55 1010 29.83 840 24.81 3 37.4 55 -5.2 22.7
07:00 1010 29.83 840 24.81 3.2 37.7 53 -5.4 22.3
07:05 1010 29.83 839 24.78 3.6 38.5 53 -5.2 22.7
07:10 1010 29.83 839 24.78 4 39.2 49 -5.8 21.6
07:15 1010 29.83 839 24.78 4.2 39.6 49 -5.5 22.1
07:20 1010 29.83 839 24.78 4.2 39.6 48 -5.7 21.7
07:25 1010 29.83 839 24.78 4.5 40.1 48 -5.7 21.8
07:30 1010 29.83 839 24.78 5 41 47 -5.5 22.1
07:35 1010 29.83 839 24.78 5 41 46 -5.6 21.9
07:40 1010 29.83 839 24.78 5.1 41.2 46 -5.6 22
07:45 1010 29.83 839 24.78 5.2 41.4 46 -5.6 21.9
07:50 1010 29.83 839 24.78 5.5 41.8 45 -5.6 22
07:55 1010 29.83 839 24.78 5.4 41.8 45 -5.5 22.1
08:00 1010 29.83 839 24.78 5.6 42.1 44 -5.6 22
08:05 1010 29.83 839 24.78 5.9 42.6 46 -4.8 23.3
08:10 1010 29.83 839 24.78 5.9 42.6 44 -5.4 22.2
08:15 1010 29.83 839 24.78 6.3 43.4 41 -6 21.2
08:20 1010 29.83 839 24.78 6.7 44 41 -5.6 21.9
08:25 1010 29.83 839 24.78 6.9 44.4 42 -5 22.9
08:30 1010 29.83 839 24.78 7.2 45 39 -5.7 21.7
08:35 1010 29.83 839 24.78 7.7 45.8 37 -6 21.3
08:40 1010 29.83 839 24.78 8.6 47.5 38 -4.9 23.2
08:45 1010 29.83 839 24.78 9.3 48.7 37 -4.8 23.4
08:50 1010 29.83 839 24.78 9.8 49.7 35 -5 22.9
08:55 1009 29.8 839 24.78 10.1 50.2 35 -4.7 23.5
09:00 1009 29.8 839 24.78 10.4 50.7 35 -4.2 24.4
09:05 1009 29.8 838 24.75 10.3 50.6 35 -4.4 24.1
09:10 1009 29.8 838 24.75 10.7 51.2 37 -3.5 25.7
09:15 1009 29.8 838 24.75 11 51.7 37 -3.2 26.2
09:20 1009 29.8 839 24.78 11.2 52.1 35 -3.8 25.1
09:25 1009 29.8 838 24.75 11.8 53.3 31 -4.9 23.1
09:30 1009 29.8 838 24.75 12.6 54.8 29 -4.9 23.2
09:35 1009 29.8 838 24.75 12.8 55 28 -5.2 22.7
09:40 1009 29.8 838 24.75 12.9 55.2 28 -5.2 22.6
09:45 1009 29.8 838 24.75 13.3 55.9 28 -4.8 23.3
09:50 1009 29.8 838 24.75 13.6 56.6 28 -4.2 24.4
09:55 1009 29.8 838 24.75 13.6 56.5 30 -3.7 25.3
10:00 1009 29.8 838 24.75 14 57.2 27 -4.5 24
10:05 1009 29.8 838 24.75 14.7 58.5 27 -4 24.7
10:10 1009 29.8 838 24.75 14.2 57.6 27 -4.4 24.2
10:15 1009 29.8 838 24.75 15.1 59.2 26 -4 24.8
10:20 1009 29.8 838 24.75 15.7 60.2 26 -3.6 25.5
10:25 1009 29.8 838 24.75 16 60.8 24 -4.5 23.9
10:30 1009 29.8 838 24.75 15.8 60.4 24 -5 23.1
10:35 1009 29.8 838 24.75 16.1 60.9 24 -4.7 23.6
10:40 1008 29.77 838 24.75 15.9 60.6 24 -4.5 24
10:45 1008 29.77 838 24.75 16.1 60.9 24 -4.1 24.6
10:50 1008 29.77 838 24.75 15.5 59.8 25 -4.2 24.4
10:55 1008 29.77 838 24.75 16.1 61 25 -3.9 25
11:00 1008 29.77 838 24.75 15.9 60.7 25 -3.8 25.1
11:05 1008 29.77 837 24.72 15.8 60.5 25 -4 24.7
11:10 1008 29.77 837 24.72 15.9 60.6 27 -3.2 26.3
11:15 1008 29.77 837 24.72 15.7 60.3 28 -2.7 27.1
11:20 1008 29.77 837 24.72 15.7 60.3 28 -2.6 27.3
11:25 1008 29.77 837 24.72 15.9 60.7 28 -2.7 27.2
11:30 1008 29.77 837 24.72 15.7 60.2 28 -2.5 27.5
11:35 1008 29.77 837 24.72 15.9 60.7 27 -3 26.6
11:40 1008 29.77 837 24.72 16 60.7 26 -3.2 26.2
11:45 1008 29.77 837 24.72 16.2 61.2 26 -3.2 26.3
11:50 1008 29.77 837 24.72 16.2 61.2 27 -2.6 27.3
11:55 1008 29.77 837 24.72 16.1 61 27 -3 26.5
12:00 1008 29.77 837 24.72 16.4 61.6 25 -3.6 25.6
12:05 1008 29.77 837 24.72 16.7 62 23 -4.7 23.5
12:10 1008 29.77 837 24.72 16.6 61.8 24 -4.2 24.4
12:15 1008 29.77 837 24.72 16.7 62.1 23 -4.6 23.7
12:20 1008 29.77 837 24.72 16.7 62.1 22 -5.1 22.8
12:25 1008 29.77 837 24.72 16.9 62.5 23 -4.4 24
12:30 1008 29.77 837 24.72 17.1 62.8 21 -5.1 22.8
12:35 1008 29.77 837 24.72 16.7 62 23 -4.7 23.6
12:40 1007 29.74 837 24.72 16.9 62.4 22 -4.7 23.5
12:45 1007 29.74 837 24.72 16.9 62.4 23 -4.5 24
12:50 1007 29.74 836 24.69 17.2 62.9 22 -4.5 23.9
12:55 1007 29.74 836 24.69 16.7 62.1 23 -4.7 23.6
13:00 1007 29.74 836 24.69 16.5 61.6 22 -5.2 22.6
13:05 1007 29.74 836 24.69 16.8 62.2 22 -5.1 22.8
13:10 1007 29.74 836 24.69 16.7 62 22 -5.1 22.8
13:15 1007 29.74 836 24.69 17 62.7 22 -5 22.9
13:20 1007 29.74 836 24.69 17.1 62.8 22 -4.7 23.5
13:25 1007 29.74 836 24.69 17.2 62.9 23 -4.3 24.2
13:30 1007 29.74 836 24.69 17.1 62.8 23 -3.9 25.1
13:35 1007 29.74 836 24.69 16.9 62.4 24 -3.7 25.3
13:40 1007 29.74 836 24.69 16.9 62.4 22 -4.7 23.5
13:45 1006 29.71 836 24.69 16.6 61.8 25 -3.3 26.1
13:50 1006 29.71 836 24.69 16.9 62.5 24 -3.8 25.2
13:55 1006 29.71 836 24.69 16.7 62.1 24 -3.6 25.5
14:00 1006 29.71 835 24.66 16.6 61.8 22 -4.9 23.2
14:05 1006 29.71 835 24.66 16.6 61.8 23 -4.8 23.3
14:10 1006 29.71 835 24.66 16.8 62.2 23 -4.4 24
14:15 1006 29.71 835 24.66 17 62.6 22 -4.7 23.6
14:20 1006 29.71 835 24.66 17.2 62.9 23 -4.3 24.3
14:25 1006 29.71 835 24.66 17.2 63 23 -4.2 24.5
14:30 1006 29.71 835 24.66 17.4 63.2 24 -3.4 25.8
14:35 1006 29.71 835 24.66 17 62.6 24 -3.7 25.4
14:40 1006 29.71 835 24.66 16.7 62 25 -3.2 26.2
14:45 1006 29.71 835 24.66 16.5 61.6 24 -4.2 24.4
14:50 1006 29.71 835 24.66 16.4 61.5 26 -3 26.7
14:55 1006 29.71 835 24.66 16.6 61.8 25 -3.3 26.1
15:00 1006 29.71 835 24.66 16.7 62.1 24 -3.7 25.3
15:05 1006 29.71 835 24.66 16.8 62.3 27 -2.3 27.9
15:10 1006 29.71 835 24.66 16.2 61.2 28 -2.2 28
15:15 1006 29.71 835 24.66 16.5 61.7 29 -1.3 29.6
15:20 1006 29.71 835 24.66 16.1 60.9 30 -1.4 29.4
15:25 1006 29.71 835 24.66 15.9 60.7 31 -1.2 29.8
15:30 1006 29.71 835 24.66 15.5 60 33 -0.7 30.7
15:35 1006 29.71 835 24.66 15.9 60.6 31 -0.9 30.3
15:40 1005 29.68 835 24.66 15.6 60 32 -0.8 30.6
15:45 1006 29.71 835 24.66 15.5 59.9 33 -0.6 30.9
15:50 1005 29.68 835 24.66 15.5 59.8 33 -0.7 30.7
15:55 1005 29.68 835 24.66 15.6 60 32 -1.1 30
16:00 1006 29.71 835 24.66 15.8 60.5 33 -0.5 31.1
16:05 1006 29.71 835 24.66 16 60.9 32 -0.6 30.9
16:10 1005 29.68 835 24.66 15.8 60.4 32 -0.7 30.8
16:15 1005 29.68 834 24.63 15.8 60.4 31 -1.3 29.7
16:20 1005 29.68 834 24.63 15.9 60.5 33 -0.2 31.6
16:25 1005 29.68 834 24.63 15.8 60.4 32 -0.9 30.4
16:30 1005 29.68 834 24.63 15.9 60.7 32 -0.8 30.5
16:35 1005 29.68 834 24.63 15.7 60.2 33 -0.3 31.4
16:40 1005 29.68 834 24.63 15.7 60.2 34 -0.1 31.9
16:45 1005 29.68 834 24.63 15.3 59.5 35 -0.2 31.7
16:50 1005 29.68 834 24.63 15.3 59.6 34 -0.4 31.3
16:55 1005 29.68 834 24.63 15.3 59.5 34 -0.6 31
17:00 1005 29.68 834 24.63 15.2 59.4 34 -0.6 30.9
17:05 1005 29.68 834 24.63 15.4 59.6 33 -0.9 30.5
17:10 1004 29.65 834 24.63 15.4 59.7 31 -1.4 29.4
17:15 1004 29.65 834 24.63 15.4 59.7 33 -0.6 30.8
17:20 1004 29.65 833 24.6 15.8 60.5 32 -0.7 30.7
17:25 1004 29.65 833 24.6 15.8 60.5 32 -0.9 30.3
17:30 1004 29.65 833 24.6 15.7 60.2 31 -1.2 29.8
17:35 1004 29.65 833 24.6 15.6 60.1 32 -1 30.2
17:40 1004 29.65 833 24.6 15.6 60.1 32 -1.1 30
17:45 1004 29.65 833 24.6 15.7 60.2 32 -1 30.2
17:50 1004 29.65 833 24.6 15.6 60 32 -1.1 30
17:55 1004 29.65 833 24.6 15.3 59.6 32 -1.4 29.5
18:00 1004 29.65 833 24.6 15.5 59.8 31 -1.4 29.5
18:05 1004 29.65 833 24.6 15.4 59.8 32 -1 30.3
18:10 1004 29.65 833 24.6 15.3 59.5 33 -1 30.2
18:15 1004 29.65 833 24.6 15.5 59.8 32 -1.1 30
18:20 1004 29.65 833 24.6 15.5 60 31 -1.4 29.5
18:25 1004 29.65 833 24.6 15.5 60 32 -0.9 30.3
18:30 1004 29.65 833 24.6 15.3 59.5 31 -1.5 29.3
18:35 1003 29.62 833 24.6 15.2 59.4 31 -1.5 29.3
18:40 1003 29.62 833 24.6 15.3 59.5 32 -1.3 29.6
18:45 1003 29.62 833 24.6 15 59.1 32 -1.4 29.4
18:50 1003 29.62 833 24.6 14.9 58.8 32 -1.4 29.5
18:55 1003 29.62 832 24.57 14.9 58.9 33 -1.2 29.8
19:00 1003 29.62 832 24.57 14.8 58.6 33 -1.3 29.7
19:05 1003 29.62 832 24.57 14.8 58.7 33 -1.1 30
19:10 1003 29.62 832 24.57 14.7 58.5 31 -2 28.3
19:15 1003 29.62 832 24.57 14.8 58.6 32 -1.5 29.2
19:20 1003 29.62 832 24.57 14.6 58.3 34 -1 30.2
19:25 1003 29.62 832 24.57 14.5 58.2 32 -1.7 29
19:30 1003 29.62 832 24.57 14.5 58 35 -0.8 30.5
19:35 1003 29.62 832 24.57 14.2 57.6 34 -1.4 29.5
19:40 1003 29.62 832 24.57 14.3 57.8 33 -1.6 29.2
19:45 1003 29.62 832 24.57 14.3 57.8 33 -1.6 29.1
19:50 1003 29.62 832 24.57 14.3 57.7 33 -1.8 28.7
19:55 1003 29.62 832 24.57 14.3 57.7 33 -1.9 28.6
20:00 1003 29.62 832 24.57 14 57.3 34 -1.4 29.5
20:05 1003 29.62 832 24.57 13.7 56.7 34 -1.7 28.9
20:10 1003 29.62 832 24.57 13.8 56.9 34 -1.5 29.2
20:15 1003 29.62 832 24.57 13.8 56.8 34 -1.6 29
20:20 1003 29.62 832 24.57 13.7 56.6 34 -2 28.4
20:25 1003 29.62 832 24.57 14 57.2 33 -1.9 28.5
20:30 1003 29.62 832 24.57 13.8 56.8 35 -1.4 29.4
20:35 1003 29.62 832 24.57 13.3 56 35 -1.9 28.6
20:40 1003 29.62 832 24.57 13.6 56.4 35 -1.6 29.2
20:45 1003 29.62 832 24.57 13.6 56.5 34 -1.8 28.7
20:50 1003 29.62 832 24.57 13.8 56.8 34 -1.8 28.8
20:55 1003 29.62 832 24.57 13.8 56.8 33 -2.1 28.3
21:00 1003 29.62 832 24.57 13.8 56.8 34 -1.8 28.8
21:05 1003 29.62 832 24.57 13.5 56.4 34 -1.8 28.8
21:10 1003 29.62 832 24.57 13.8 56.9 33 -2.1 28.1
21:15 1003 29.62 833 24.6 13.7 56.7 34 -1.7 28.9
21:20 1003 29.62 833 24.6 13.7 56.6 33 -2.2 28.1
21:25 1003 29.62 832 24.57 13.7 56.6 34 -1.9 28.6
21:30 1003 29.62 832 24.57 13.4 56.1 35 -1.9 28.7
21:35 1003 29.62 832 24.57 13 55.4 35 -1.9 28.6
21:40 1003 29.62 832 24.57 13.2 55.7 33 -2.6 27.4
21:45 1003 29.62 832 24.57 13.3 55.9 35 -1.9 28.6
21:50 1003 29.62 832 24.57 12.7 54.9 36 -2 28.4
21:55 1003 29.62 832 24.57 12.6 54.7 37 -1.8 28.8
22:00 1003 29.62 832 24.57 12.5 54.5 37 -1.6 29.1
22:05 1003 29.62 832 24.57 12.8 55 35 -2.3 27.8
22:10 1003 29.62 832 24.57 12.7 54.9 36 -1.9 28.7
22:15 1003 29.62 832 24.57 12.4 54.3 37 -1.7 29
22:20 1003 29.62 832 24.57 12.1 53.8 39 -1.3 29.6
22:25 1003 29.62 832 24.57 12 53.6 38 -1.9 28.6
22:30 1003 29.62 832 24.57 12.1 53.8 39 -1.5 29.3
22:35 1003 29.62 832 24.57 11.9 53.4 40 -1.1 30
22:40 1003 29.62 832 24.57 11.5 52.7 41 -1.2 29.9
22:45 1003 29.62 832 24.57 11.6 52.8 40 -1.5 29.3
22:50 1003 29.62 832 24.57 12.4 54.3 40 -0.6 30.9
22:55 1003 29.62 832 24.57 12.2 54 40 -0.8 30.6
23:00 1003 29.62 832 24.57 12.4 54.4 40 -0.8 30.6
23:05 1003 29.62 832 24.57 12.6 54.6 42 0.2 32.4
23:10 1003 29.62 832 24.57 12.4 54.3 44 0.4 32.8
23:15 1003 29.62 832 24.57 12.3 54.2 44 0.6 33
23:20 1003 29.62 832 24.57 12.2 54 45 0.6 33
23:25 1003 29.62 832 24.57 12.2 53.9 45 0.7 33.3
23:30 1002 29.59 832 24.57 12.2 53.9 45 0.7 33.2
23:35 1002 29.59 831 24.54 12.2 53.9 45 0.8 33.4
23:40 1002 29.59 831 24.54 12.1 53.8 46 0.8 33.4
23:45 1002 29.59 831 24.54 12 53.5 46 0.8 33.5
23:50 1002 29.59 831 24.54 11.9 53.4 46 0.8 33.5
23:55 1002 29.59 831 24.54 11.9 53.4 46 0.8 33.4
24:00 1002 29.59 831 24.54 12 53.6 46 0.9 33.6